Panama, Oklahoma
Current Conditions -  °F | °C
As of 2:35 AM on Tuesday 21 Oct 2014 (Local Time) from KRKR Reporting Station
Moderate Fog Moderate Fog  
Wind Chill: 56°   Ceiling: 200
Heat Index: 56°   Visibility: 0mi
Dew Point: 55°   Wind: 3mph
Humidity: 96%   Direction: 360°N
Pressure: 30.07"   Gusts: NA
Location:  35.17°N, 94.67°W
Report Text: KRKR 210735Z AUTO 36003KT M1/4SM FG OVC002 14/13 A3007 RMK AO2 T01350128
Loading
Personal Weather Stations






























Interactive Weather Map
Tropical Storm Tracking
New forecast layout! Learn more

10-Day Weather Forecast

Advertisements
Track Severe Weather on mobile